Time;durP1;ratioP1;P1;durP2;ratioP2;P2;SDS_P1;SDS_P2;PMS_P1;PMS_P2;Temp;Humidity;BMP_temperature;BMP_pressure;BME280_temperature;BME280_humidity;BME280_pressure;Samples;Min_cycle;Max_cycle;Signal;HPM_P1;HPM_P2
2022/12/29 00:01:16;;;;;;;10.77;7.90;;;;;;;22.33;44.75;95820.25;5063251;28;20135;-67
2022/12/29 00:03:41;;;;;;;11.32;8.13;;;;;;;22.20;44.96;95808.97;5062730;28;20137;-65
2022/12/29 00:06:06;;;;;;;10.13;8.07;;;;;;;22.11;44.96;95792.84;5050409;28;20047;-64
2022/12/29 00:08:41;;;;;;;10.95;8.15;;;;;;;22.14;44.76;95802.75;5062444;28;20035;-65
2022/12/29 00:11:07;;;;;;;10.13;8.10;;;;;;;22.29;44.93;95836.06;5047403;28;20056;-65
2022/12/29 00:16:17;;;;;;;10.57;7.80;;;;;;;22.24;44.81;95834.03;5051878;28;20817;-64
2022/12/29 00:18:42;;;;;;;10.15;8.20;;;;;;;22.27;45.05;95827.63;5032000;28;20049;-65
2022/12/29 00:35:07;;;;;;;9.73;7.50;;;;;;;22.28;44.86;95837.28;5015675;28;20051;-64
2022/12/29 00:35:17;;;;;;;10.98;8.15;;;;;;;22.27;44.97;95843.97;5037478;28;20560;-66
2022/12/29 00:45:56;;;;;;;10.93;7.85;;;;;;;21.44;44.74;95737.53;5056357;28;20071;-64
2022/12/29 00:51:06;;;;;;;12.82;7.95;;;;;;;22.18;45.00;95846.81;5049337;28;20102;-67
2022/12/29 00:53:31;;;;;;;10.88;8.38;;;;;;;22.18;44.90;95851.50;5035842;28;20032;-65
2022/12/29 00:55:57;;;;;;;10.45;7.85;;;;;;;21.92;44.95;95811.94;5065655;28;20112;-64
2022/12/29 00:58:22;;;;;;;10.15;7.82;;;;;;;21.98;45.03;95827.81;5049468;28;20506;-65
2022/12/29 01:00:48;;;;;;;10.13;7.82;;;;;;;22.06;45.15;95831.63;5033865;28;20502;-64
2022/12/29 01:03:13;;;;;;;11.00;8.05;;;;;;;21.57;44.80;95754.28;5070173;28;20102;-67
2022/12/29 01:05:39;;;;;;;10.43;7.68;;;;;;;21.61;44.75;95771.09;5050418;28;20032;-65
2022/12/29 01:08:04;;;;;;;11.50;8.32;;;;;;;22.04;44.88;95836.78;5049111;28;20044;-65
2022/12/29 01:10:30;;;;;;;10.38;7.78;;;;;;;22.06;44.87;95833.56;5065862;28;20044;-65
2022/12/29 01:12:55;;;;;;;10.15;7.72;;;;;;;21.89;45.03;95796.59;5039705;28;20060;-64
2022/12/29 01:15:21;;;;;;;10.38;7.70;;;;;;;22.07;44.88;95824.94;5043552;28;20032;-66
2022/12/29 01:17:46;;;;;;;10.35;7.63;;;;;;;22.07;44.95;95835.81;5063344;28;20101;-63
2022/12/29 01:20:11;;;;;;;10.13;7.72;;;;;;;21.53;44.91;95743.59;5029500;28;20044;-66
2022/12/29 01:22:37;;;;;;;10.70;8.40;;;;;;;21.59;44.70;95747.13;5046735;28;20112;-67
2022/12/29 01:25:03;;;;;;;10.25;8.13;;;;;;;22.08;44.94;95831.88;5046615;28;20069;-65
2022/12/29 01:27:29;;;;;;;11.00;8.13;;;;;;;21.96;45.00;95808.53;5011751;28;20051;-66
2022/12/29 01:29:54;;;;;;;11.43;8.40;;;;;;;22.04;44.91;95836.78;5028112;28;20052;-66
2022/12/29 01:32:20;;;;;;;10.90;8.13;;;;;;;22.04;44.77;95825.91;5046441;28;20426;-66
2022/12/29 01:34:45;;;;;;;10.80;8.07;;;;;;;21.89;44.91;95791.88;5042605;28;20057;-66
2022/12/29 01:37:11;;;;;;;11.52;9.10;;;;;;;22.02;44.87;95833.78;5053419;28;20056;-65
2022/12/29 01:39:36;;;;;;;10.77;8.20;;;;;;;22.05;44.85;95821.22;5030686;28;20055;-65
2022/12/29 01:42:02;;;;;;;11.27;8.70;;;;;;;22.11;45.00;95814.59;5061850;28;20048;-63
2022/12/29 01:44:53;;;;;;;10.88;7.68;;;;;;;22.11;44.99;95817.31;5069649;28;20145;-65
2022/12/29 01:47:40;;;;;;;11.55;8.13;;;;;;;22.10;44.78;95813.09;5030557;28;20468;-65
2022/12/29 01:50:11;;;;;;;10.40;7.95;;;;;;;22.00;44.83;95797.41;5054241;28;20045;-65
2022/12/29 01:52:40;;;;;;;10.25;8.00;;;;;;;21.90;44.88;95784.47;5023176;28;20052;-65
2022/12/29 01:55:06;;;;;;;10.73;8.27;;;;;;;21.92;44.89;95782.78;5062144;28;20056;-64
2022/12/29 01:57:33;;;;;;;10.15;8.13;;;;;;;22.06;44.92;95807.13;5041564;28;20041;-66
2022/12/29 02:00:11;;;;;;;9.45;7.97;;;;;;;21.46;44.94;95716.09;5050363;28;20105;-64
2022/12/29 02:02:36;;;;;;;11.68;8.65;;;;;;;22.05;44.97;95811.06;5047512;28;20032;-65
2022/12/29 02:05:05;;;;;;;11.50;8.32;;;;;;;22.06;44.91;95800.94;5050341;28;20539;-66
2022/12/29 02:07:30;;;;;;;10.18;8.10;;;;;;;21.91;44.94;95778.56;5031727;28;20051;-66
2022/12/29 02:09:56;;;;;;;11.73;8.00;;;;;;;21.95;44.96;95785.25;5066494;28;20128;-64
2022/12/29 02:12:21;;;;;;;10.65;7.88;;;;;;;22.03;44.91;95802.66;5049554;28;20036;-64
2022/12/29 02:14:47;;;;;;;11.32;8.95;;;;;;;22.04;45.13;95797.97;5048568;28;20489;-63
2022/12/29 02:17:31;;;;;;;10.38;7.97;;;;;;;21.66;44.60;95735.81;5032892;28;20451;-65
2022/12/29 02:20:30;;;;;;;10.48;8.13;;;;;;;22.06;44.86;95790.81;5046456;28;20441;-65
2022/12/29 02:23:20;;;;;;;11.77;8.45;;;;;;;22.05;44.99;95794.75;5046054;28;20261;-62
2022/12/29 02:25:58;;;;;;;11.15;8.70;;;;;;;21.41;44.91;95708.63;5042622;28;20048;-65
2022/12/29 02:28:42;;;;;;;11.85;8.70;;;;;;;22.02;44.90;95790.28;5058685;28;20524;-65
2022/12/29 02:31:13;;;;;;;10.88;8.18;;;;;;;22.01;45.14;95793.47;5054308;28;20436;-65
2022/12/29 02:33:42;;;;;;;12.20;9.05;;;;;;;21.93;45.06;95782.28;5046860;28;20075;-65
2022/12/29 02:36:29;;;;;;;11.43;8.40;;;;;;;22.01;44.92;95798.91;5045078;28;20112;-62
2022/12/29 02:39:20;;;;;;;10.20;8.30;;;;;;;21.84;45.03;95786.38;5055840;28;20143;-65
2022/12/29 02:42:06;;;;;;;10.73;8.30;;;;;;;22.00;45.11;95800.91;5044113;28;20480;-63
2022/12/29 02:44:56;;;;;;;10.40;8.55;;;;;;;21.88;45.01;95790.38;5064886;28;20048;-65
2022/12/29 02:47:46;;;;;;;10.48;8.27;;;;;;;21.86;44.70;95771.09;5046302;28;20130;-64
2022/12/29 02:50:27;;;;;;;12.65;9.10;;;;;;;22.02;44.50;95793.00;5001814;28;20145;-65
2022/12/29 02:52:59;;;;;;;12.10;8.30;;;;;;;21.96;44.71;95786.75;5038976;28;20045;-66
2022/12/29 02:55:25;;;;;;;11.75;8.52;;;;;;;21.80;44.91;95761.41;4994132;28;20122;-65
2022/12/29 02:58:06;;;;;;;13.23;9.13;;;;;;;21.98;45.03;95781.59;5029523;28;20053;-65
2022/12/29 03:00:31;;;;;;;11.02;8.23;;;;;;;21.86;45.23;95767.63;5045011;28;20044;-65
2022/12/29 03:03:15;;;;;;;9.95;8.38;;;;;;;21.96;44.86;95786.75;5027361;28;20055;-65
2022/12/29 03:06:03;;;;;;;12.32;9.15;;;;;;;21.96;45.02;95786.75;5046468;28;20053;-65
2022/12/29 03:08:39;;;;;;;12.30;8.50;;;;;;;21.80;44.94;95756.72;5047262;28;20029;-66
2022/12/29 03:12:07;;;;;;;12.40;8.48;;;;;;;21.95;45.03;95779.81;5035143;28;20049;-65
2022/12/29 03:16:45;;;;;;;11.05;8.38;;;;;;;21.96;44.61;95789.47;5048947;28;20051;-65
2022/12/29 03:19:25;;;;;;;11.18;8.57;;;;;;;21.95;45.21;95789.97;5046933;28;20064;-66
2022/12/29 03:24:40;;;;;;;10.95;8.27;;;;;;;21.77;45.08;95743.34;5064610;28;20098;-65
2022/12/29 03:27:06;;;;;;;11.68;8.70;;;;;;;21.81;45.01;95752.78;5012304;28;20523;-66
2022/12/29 03:29:34;;;;;;;10.90;8.40;;;;;;;21.89;45.18;95774.84;5010247;28;20025;-65
2022/12/29 03:31:59;;;;;;;10.90;8.20;;;;;;;21.28;44.97;95675.63;5011394;28;20093;-63
2022/12/29 03:34:25;;;;;;;11.63;8.73;;;;;;;21.91;44.95;95764.22;5042776;28;20040;-64
2022/12/29 03:36:55;;;;;;;12.35;8.70;;;;;;;21.08;44.90;95656.66;5065083;28;20094;-63
2022/12/29 03:39:22;;;;;;;12.20;8.95;;;;;;;21.91;44.61;95785.97;5063087;28;20048;-64
2022/12/29 03:41:47;;;;;;;11.13;8.20;;;;;;;21.85;44.91;95775.03;5028956;28;20603;-65
2022/12/29 03:44:12;;;;;;;13.43;9.30;;;;;;;21.63;45.00;95727.91;5030113;28;20032;-63
2022/12/29 03:46:38;;;;;;;10.18;8.15;;;;;;;21.89;44.97;95769.41;5043485;28;20110;-65
2022/12/29 03:49:03;;;;;;;10.55;8.32;;;;;;;21.92;45.04;95773.88;5060144;28;20049;-65
2022/12/29 03:51:29;;;;;;;11.43;8.63;;;;;;;21.75;45.04;95759.38;5046252;28;20047;-64
2022/12/29 03:53:54;;;;;;;12.27;9.63;;;;;;;21.13;45.00;95683.13;5049251;28;20785;-65
2022/12/29 03:56:20;;;;;;;12.60;8.73;;;;;;;21.88;44.99;95803.25;5064400;28;20032;-65
2022/12/29 03:58:45;;;;;;;11.68;8.60;;;;;;;21.29;44.92;95701.59;5064046;28;20044;-65
2022/12/29 04:01:10;;;;;;;13.38;9.60;;;;;;;21.86;45.09;95792.84;5065011;28;20127;-64
2022/12/29 04:03:36;;;;;;;11.57;9.18;;;;;;;21.62;45.01;95772.59;5046154;28;20048;-65
2022/12/29 04:06:01;;;;;;;11.57;9.30;;;;;;;21.35;44.95;95732.25;5046065;28;20068;-62
2022/12/29 04:08:27;;;;;;;12.73;9.35;;;;;;;21.85;45.09;95807.66;5064626;28;20075;-66
2022/12/29 04:10:52;;;;;;;11.50;8.80;;;;;;;21.87;44.92;95799.03;5045858;28;20056;-65
2022/12/29 04:13:17;;;;;;;11.07;9.02;;;;;;;21.66;45.06;95767.69;5046515;28;20364;-65
2022/12/29 04:15:44;;;;;;;12.15;8.82;;;;;;;21.85;45.00;95791.34;5029437;28;20465;-67
2022/12/29 04:18:10;;;;;;;12.25;8.82;;;;;;;21.66;44.97;95778.56;5063442;28;20072;-66
2022/12/29 04:23:20;;;;;;;12.02;8.90;;;;;;;21.59;45.11;95765.41;5064786;28;20101;-67
2022/12/29 04:25:47;;;;;;;12.75;8.65;;;;;;;20.49;44.95;95607.84;5048122;28;20532;-65
2022/12/29 04:28:12;;;;;;;11.60;8.50;;;;;;;21.70;44.98;95790.72;5048505;28;20040;-67
2022/12/29 04:30:38;;;;;;;12.25;8.98;;;;;;;21.63;45.11;95790.41;5067886;28;20082;-64
2022/12/29 04:33:03;;;;;;;11.43;8.73;;;;;;;21.78;45.18;95812.78;5068035;28;20052;-64
2022/12/29 04:35:29;;;;;;;9.98;8.20;;;;;;;21.54;45.04;95774.25;5068518;28;20113;-65
2022/12/29 04:37:54;;;;;;;11.95;9.20;;;;;;;21.77;45.04;95811.31;5067293;28;20367;-66
2022/12/29 04:40:20;;;;;;;10.77;8.57;;;;;;;21.04;44.85;95713.16;5067594;28;20658;-65
2022/12/29 04:42:45;;;;;;;12.13;8.77;;;;;;;21.62;44.94;95795.06;5039625;28;20528;-64
2022/12/29 04:45:10;;;;;;;11.00;8.73;;;;;;;21.73;45.40;95818.91;5046340;28;20595;-66
2022/12/29 04:47:36;;;;;;;11.63;8.68;;;;;;;21.74;44.99;95817.69;5028375;28;20029;-66
2022/12/29 04:50:01;;;;;;;11.20;8.70;;;;;;;21.74;44.93;95817.69;5048325;28;20029;-65
2022/12/29 04:52:27;;;;;;;12.68;8.82;;;;;;;21.74;45.08;95820.41;5067548;28;20519;-66
2022/12/29 04:54:52;;;;;;;11.02;8.75;;;;;;;20.99;44.89;95716.56;5048917;28;20040;-66
2022/12/29 04:57:18;;;;;;;11.82;9.48;;;;;;;21.65;44.84;95809.69;5048818;28;20057;-67
2022/12/29 04:59:43;;;;;;;12.50;9.52;;;;;;;21.61;44.90;95814.56;5065798;28;20056;-64
2022/12/29 05:02:08;;;;;;;10.90;8.57;;;;;;;20.41;44.62;95631.19;5047672;28;20041;-65
2022/12/29 05:04:34;;;;;;;11.68;8.57;;;;;;;21.11;44.86;95734.47;5000630;28;20048;-67
2022/12/29 05:06:59;;;;;;;11.52;8.50;;;;;;;21.70;44.98;95844.34;5067343;28;20040;-64
2022/12/29 05:09:25;;;;;;;13.05;9.35;;;;;;;21.69;45.09;95826.53;5060802;28;20037;-64
2022/12/29 05:11:50;;;;;;;11.30;8.93;;;;;;;21.68;45.03;95830.47;5044015;28;20040;-66
2022/12/29 05:14:16;;;;;;;12.23;8.65;;;;;;;21.68;44.99;95825.03;5049850;28;20032;-64
2022/12/29 05:16:41;;;;;;;11.88;9.35;;;;;;;21.69;45.01;95826.53;5047775;28;20045;-64
2022/12/29 05:19:06;;;;;;;13.65;9.43;;;;;;;21.14;44.42;95743.66;5065227;28;20048;-65
2022/12/29 05:21:32;;;;;;;12.25;9.48;;;;;;;21.90;45.20;95836.13;5066179;28;20040;-67
2022/12/29 05:23:57;;;;;;;14.45;12.00;;;;;;;20.05;38.77;95701.44;5065955;28;20052;-63
2022/12/29 05:26:23;;;;;;;12.60;9.18;;;;;;;20.86;46.76;95831.41;5047199;28;20025;-64
2022/12/29 05:28:48;;;;;;;14.48;9.45;;;;;;;21.27;45.87;95822.78;5064497;28;20559;-66
2022/12/29 05:31:14;;;;;;;14.30;8.98;;;;;;;21.47;45.17;95835.19;5064996;28;20424;-66
2022/12/29 05:33:39;;;;;;;11.38;8.80;;;;;;;21.59;45.18;95830.63;5047679;28;20051;-65
2022/12/29 05:36:06;;;;;;;11.90;8.30;;;;;;;21.60;45.09;95823.97;5065664;28;20102;-65
2022/12/29 05:38:32;;;;;;;12.73;8.85;;;;;;;21.53;44.87;95810.78;5064807;28;20045;-65
2022/12/29 05:40:58;;;;;;;12.48;8.77;;;;;;;21.70;45.02;95866.06;5048849;28;20465;-67
2022/12/29 05:43:23;;;;;;;11.18;8.73;;;;;;;21.54;45.07;95831.31;5046828;28;20044;-66
2022/12/29 05:45:49;;;;;;;11.52;8.43;;;;;;;21.36;44.93;95788.09;5065385;28;20052;-65
2022/12/29 05:48:15;;;;;;;12.38;8.90;;;;;;;21.63;45.05;95825.75;5064670;28;20032;-65
2022/12/29 05:50:40;;;;;;;11.68;8.40;;;;;;;21.51;45.06;95807.81;5065443;28;20119;-63
2022/12/29 05:53:06;;;;;;;10.57;8.20;;;;;;;21.71;45.21;95834.97;5048827;28;20043;-63
2022/12/29 05:55:31;;;;;;;12.98;8.90;;;;;;;21.82;44.78;95826.91;5048007;28;20052;-64
2022/12/29 05:57:56;;;;;;;12.05;9.05;;;;;;;21.82;44.93;95843.22;5063520;28;20536;-67
2022/12/29 06:00:22;;;;;;;13.18;8.90;;;;;;;21.82;45.00;95851.38;5062789;28;20044;-66
2022/12/29 06:02:47;;;;;;;12.70;9.15;;;;;;;21.83;45.07;95858.31;5045479;28;20045;-66
2022/12/29 06:05:13;;;;;;;11.52;9.00;;;;;;;21.80;44.99;95842.97;5066914;28;20810;-67
2022/12/29 06:07:38;;;;;;;11.13;8.60;;;;;;;20.99;44.78;95721.97;5065951;28;20114;-66
2022/12/29 06:10:05;;;;;;;12.18;9.05;;;;;;;21.74;44.97;95874.78;5047727;28;20059;-65
2022/12/29 06:12:30;;;;;;;10.90;8.63;;;;;;;21.76;45.15;95847.84;5065900;28;20047;-66
2022/12/29 06:14:56;;;;;;;11.23;8.48;;;;;;;21.38;45.11;95796.50;5047390;28;20045;-64
2022/12/29 06:17:21;;;;;;;12.25;8.90;;;;;;;21.75;44.92;95857.22;5046855;28;20048;-66
2022/12/29 06:19:47;;;;;;;12.32;9.18;;;;;;;21.73;45.01;95848.81;5046794;28;20121;-65
2022/12/29 06:22:12;;;;;;;11.68;8.30;;;;;;;20.85;44.90;95715.88;5045934;28;20041;-66
2022/12/29 06:24:38;;;;;;;13.18;9.35;;;;;;;21.68;44.81;95841.34;5066065;28;20040;-65
2022/12/29 06:27:03;;;;;;;12.00;9.05;;;;;;;21.63;45.04;95828.47;5034021;28;20165;-65
2022/12/29 06:29:29;;;;;;;12.50;9.13;;;;;;;21.07;44.78;95742.06;5055920;28;20501;-63
2022/12/29 06:31:58;;;;;;;11.43;8.63;;;;;;;21.91;45.17;95853.94;5045259;28;20045;-66
2022/12/29 06:34:24;;;;;;;12.23;9.13;;;;;;;20.14;44.99;95599.03;5042458;28;20097;-69
2022/12/29 06:36:50;;;;;;;12.77;9.25;;;;;;;21.89;45.14;95861.84;5053195;28;20128;-64
2022/12/29 06:39:15;;;;;;;13.07;8.95;;;;;;;21.84;45.33;95860.56;5032088;28;20128;-62
2022/12/29 06:41:40;;;;;;;12.48;9.15;;;;;;;21.70;45.48;95849.75;5062579;28;20607;-65
2022/12/29 06:44:06;;;;;;;11.48;8.70;;;;;;;21.71;45.55;95840.41;5046672;28;20505;-64
2022/12/29 06:46:31;;;;;;;12.25;8.82;;;;;;;21.77;45.55;95849.34;5023753;28;20599;-66
2022/12/29 06:48:57;;;;;;;12.32;9.02;;;;;;;20.50;45.77;95658.19;5043792;28;20041;-67
2022/12/29 06:51:22;;;;;;;12.02;8.65;;;;;;;21.99;45.65;95861.94;5041195;28;20045;-63
2022/12/29 06:53:48;;;;;;;11.70;8.75;;;;;;;22.04;45.45;95868.69;5043816;28;20056;-63
2022/12/29 06:56:13;;;;;;;12.20;8.85;;;;;;;21.99;45.64;95870.09;5045279;28;20033;-65
2022/12/29 06:58:38;;;;;;;12.63;8.88;;;;;;;22.03;45.76;95857.06;5024558;28;20040;-62
2022/12/29 07:01:04;;;;;;;11.55;7.75;;;;;;;22.02;45.90;95882.75;5041359;28;20433;-66
2022/12/29 07:03:30;;;;;;;11.40;9.00;;;;;;;22.32;44.74;95856.84;5042854;28;20098;-66
2022/12/29 07:05:57;;;;;;;11.63;8.38;;;;;;;22.25;44.00;95802.88;5009408;28;20520;-63
2022/12/29 07:08:23;;;;;;;10.65;8.23;;;;;;;22.71;43.72;95866.09;5044122;28;20032;-65
2022/12/29 07:10:48;;;;;;;11.93;8.38;;;;;;;22.84;43.91;95875.34;5044075;28;20588;-66
2022/12/29 07:13:14;;;;;;;10.10;7.68;;;;;;;22.30;43.09;95772.25;5042861;28;20429;-64
2022/12/29 07:15:39;;;;;;;10.75;8.00;;;;;;;22.46;43.18;95785.94;5043515;28;20417;-64
2022/12/29 07:18:05;;;;;;;10.35;7.93;;;;;;;23.17;43.14;95870.88;5042472;28;20114;-63
2022/12/29 07:20:31;;;;;;;13.02;8.30;;;;;;;23.22;42.96;95870.16;5030636;28;20109;-64
2022/12/29 07:22:57;;;;;;;12.35;7.78;;;;;;;23.18;42.79;95856.00;5032737;28;20132;-63
2022/12/29 07:25:22;;;;;;;12.93;8.70;;;;;;;23.16;43.05;95863.94;5029060;28;20142;-68
2022/12/29 07:27:48;;;;;;;11.27;8.40;;;;;;;22.58;42.96;95756.84;5047188;28;20041;-65
2022/12/29 07:30:14;;;;;;;10.82;7.65;;;;;;;23.21;42.87;95871.38;5030628;28;20048;-67
2022/12/29 07:32:39;;;;;;;10.80;7.78;;;;;;;23.38;42.97;95869.50;5044637;28;20024;-63
2022/12/29 07:35:05;;;;;;;12.10;8.43;;;;;;;23.44;42.56;95867.56;5044254;28;20340;-64
2022/12/29 07:37:30;;;;;;;11.60;8.13;;;;;;;23.35;42.73;95851.41;5041795;28;20041;-65
2022/12/29 07:39:56;;;;;;;10.13;7.95;;;;;;;23.44;42.35;95856.66;5039972;28;20521;-62
2022/12/29 07:42:21;;;;;;;11.23;8.10;;;;;;;23.24;42.37;95826.81;5037096;28;20464;-69
2022/12/29 07:44:47;;;;;;;10.30;7.72;;;;;;;23.58;42.33;95861.16;5041661;28;20075;-69
2022/12/29 07:47:12;;;;;;;10.80;7.68;;;;;;;23.64;42.15;95870.88;5042840;28;21504;-68
2022/12/29 07:49:37;;;;;;;11.40;8.60;;;;;;;23.62;42.11;95851.50;5043857;28;20684;-68
2022/12/29 07:52:03;;;;;;;11.80;8.23;;;;;;;23.85;41.77;95868.72;5029462;28;20045;-69
2022/12/29 07:54:28;;;;;;;10.40;8.07;;;;;;;22.20;41.68;95626.72;5011762;28;20052;-65
2022/12/29 07:56:54;;;;;;;9.98;7.75;;;;;;;24.02;41.88;95868.28;5043289;28;20048;-64
2022/12/29 07:59:19;;;;;;;10.13;8.00;;;;;;;24.08;41.52;95882.69;5043731;28;20044;-66
2022/12/29 08:01:45;;;;;;;9.40;7.55;;;;;;;24.15;41.24;95871.25;5030186;28;20064;-64
2022/12/29 08:04:10;;;;;;;11.10;7.90;;;;;;;24.10;40.98;95885.66;5041625;28;20202;-64
2022/12/29 08:06:37;;;;;;;9.27;7.18;;;;;;;24.02;41.29;95868.28;5025935;28;20505;-65
2022/12/29 08:09:03;;;;;;;11.48;7.93;;;;;;;23.86;41.42;95853.84;5025416;28;20485;-66
2022/12/29 08:11:28;;;;;;;11.05;7.97;;;;;;;24.14;41.01;95886.16;5037147;28;20108;-67
2022/12/29 08:13:54;;;;;;;12.13;8.50;;;;;;;24.28;40.88;95884.47;5042357;28;20037;-65
2022/12/29 08:16:19;;;;;;;10.70;8.02;;;;;;;23.71;40.75;95793.31;5041775;28;20601;-63
2022/12/29 08:18:44;;;;;;;9.70;7.88;;;;;;;24.49;40.49;95878.31;5041349;28;20448;-67
2022/12/29 08:21:10;;;;;;;10.40;7.50;;;;;;;24.59;40.23;95876.81;5042408;28;20429;-66
2022/12/29 08:23:35;;;;;;;10.68;7.53;;;;;;;24.69;39.82;95880.78;5024073;28;20224;-64
2022/12/29 08:26:02;;;;;;;11.65;7.75;;;;;;;24.73;39.68;95886.75;5042020;28;20044;-69
2022/12/29 08:28:28;;;;;;;12.60;8.27;;;;;;;24.81;39.70;95872.06;5041938;28;20061;-65
2022/12/29 08:30:53;;;;;;;10.98;7.80;;;;;;;24.68;39.57;95860.16;5008392;28;20562;-66
2022/12/29 08:33:19;;;;;;;10.43;7.70;;;;;;;24.64;39.79;95851.50;5024851;28;20539;-64
2022/12/29 08:35:44;;;;;;;10.43;7.75;;;;;;;24.83;39.58;95870.34;5041823;28;20032;-64
2022/12/29 08:38:13;;;;;;;10.30;7.18;;;;;;;24.88;39.53;95877.78;5040103;28;20061;-67
2022/12/29 08:40:38;;;;;;;10.88;7.90;;;;;;;24.95;38.98;95871.81;5043437;28;20052;-63
2022/12/29 08:43:04;;;;;;;10.43;7.40;;;;;;;24.90;39.38;95858.94;5043432;28;20041;-65
2022/12/29 08:45:29;;;;;;;11.23;8.05;;;;;;;25.12;39.01;95888.22;5043180;28;20033;-63
2022/12/29 08:47:55;;;;;;;10.38;7.55;;;;;;;24.62;38.89;95793.88;5042651;28;20517;-66
2022/12/29 08:50:20;;;;;;;9.98;8.05;;;;;;;25.11;38.82;95851.97;5025054;28;20016;-67
2022/12/29 08:52:45;;;;;;;11.35;7.82;;;;;;;25.35;38.53;95865.78;5048167;28;20941;-65
2022/12/29 08:55:11;;;;;;;9.80;7.32;;;;;;;25.31;38.72;95870.78;5043153;28;20501;-66
2022/12/29 08:57:36;;;;;;;15.27;7.95;;;;;;;25.44;38.65;95869.00;5042754;28;20063;-64
2022/12/29 09:00:03;;;;;;;11.57;8.15;;;;;;;25.41;38.30;95850.13;5058763;28;20041;-67
2022/12/29 09:02:29;;;;;;;9.90;7.25;;;;;;;25.18;38.61;95835.03;5061403;28;20495;-67
2022/12/29 09:04:54;;;;;;;10.85;7.63;;;;;;;24.77;38.17;95745.16;5044093;28;20068;-67
2022/12/29 09:07:19;;;;;;;10.18;7.82;;;;;;;24.83;38.83;95766.53;5044510;28;20497;-65
2022/12/29 09:09:45;;;;;;;10.25;7.85;;;;;;;25.21;38.72;95828.56;5063145;28;20089;-67
2022/12/29 09:12:10;;;;;;;11.07;7.82;;;;;;;24.90;38.53;95755.09;5064510;28;20044;-65
2022/12/29 09:14:36;;;;;;;11.00;8.18;;;;;;;25.49;38.95;95840.16;5065814;28;20035;-66
2022/12/29 09:19:45;;;;;;;9.80;7.35;;;;;;;25.26;39.01;95862.59;5066743;28;20056;-69
2022/12/29 09:22:10;;;;;;;9.85;7.85;;;;;;;25.22;38.79;95849.19;5065981;28;20044;-65
2022/12/29 09:24:36;;;;;;;11.27;7.38;;;;;;;25.26;39.06;95849.69;5065727;28;20047;-63
2022/12/29 09:27:01;;;;;;;10.48;7.82;;;;;;;25.35;38.84;95850.16;5047234;28;20037;-64
2022/12/29 09:29:27;;;;;;;8.88;7.38;;;;;;;25.19;39.39;95847.47;5066345;28;20036;-64
2022/12/29 09:31:54;;;;;;;12.95;8.10;;;;;;;25.19;39.75;95842.00;5026374;28;20053;-65
2022/12/29 09:34:19;;;;;;;10.88;7.43;;;;;;;24.50;39.46;95726.88;5040315;28;20045;-64
2022/12/29 09:36:45;;;;;;;11.30;8.20;;;;;;;25.34;39.61;95847.91;5054383;28;20055;-66
2022/12/29 09:39:10;;;;;;;10.70;7.97;;;;;;;25.61;38.94;95827.94;5046170;28;20467;-62
2022/12/29 09:41:45;;;;;;;10.98;7.32;;;;;;;25.40;38.98;95810.34;5045065;28;20032;-61
2022/12/29 09:44:20;;;;;;;11.13;7.57;;;;;;;26.02;38.45;95819.28;5010045;28;20064;-60
2022/12/29 09:46:48;;;;;;;10.02;7.20;;;;;;;26.05;38.29;95812.78;5025735;28;20033;-64
2022/12/29 09:49:29;;;;;;;12.32;8.02;;;;;;;25.59;38.63;95778.44;5010105;28;20098;-65
2022/12/29 09:51:59;;;;;;;11.43;7.95;;;;;;;25.36;38.23;95736.03;5019995;28;20041;-64
2022/12/29 09:54:24;;;;;;;11.18;7.72;;;;;;;25.23;38.68;95722.19;5044164;28;20039;-65
2022/12/29 09:56:49;;;;;;;10.98;7.18;;;;;;;25.34;39.28;95741.28;5044198;28;20053;-65
2022/12/29 09:59:17;;;;;;;11.90;8.00;;;;;;;25.05;38.23;95670.84;5010158;28;20090;-66
2022/12/29 10:01:46;;;;;;;10.00;7.10;;;;;;;25.98;38.42;95802.38;5009335;28;20049;-67
2022/12/29 10:04:12;;;;;;;9.85;7.35;;;;;;;25.77;38.69;95797.03;5013864;28;20042;-63
2022/12/29 10:06:39;;;;;;;11.25;7.70;;;;;;;25.95;38.31;95800.66;5038318;28;20056;-64
2022/12/29 10:09:17;;;;;;;11.00;7.57;;;;;;;25.70;38.84;95781.16;5043194;28;20070;-62
2022/12/29 10:12:00;;;;;;;12.60;7.70;;;;;;;25.89;38.47;95789.00;5065646;28;20025;-63
2022/12/29 10:14:56;;;;;;;12.93;8.52;;;;;;;25.83;38.52;95793.75;5064964;28;20036;-63
2022/12/29 10:17:31;;;;;;;11.13;7.97;;;;;;;25.81;38.59;95796.25;5046056;28;20041;-64
2022/12/29 10:20:18;;;;;;;10.43;8.23;;;;;;;25.79;38.60;95787.78;5063754;28;20147;-64
2022/12/29 10:22:52;;;;;;;11.02;7.72;;;;;;;25.88;38.77;95798.44;5051278;28;20056;-64
2022/12/29 10:25:23;;;;;;;11.88;7.93;;;;;;;25.69;38.90;95785.13;5061860;28;20086;-64
2022/12/29 10:27:49;;;;;;;12.07;8.10;;;;;;;25.77;38.40;95769.66;5042472;28;20596;-64
2022/12/29 10:30:14;;;;;;;11.98;7.15;;;;;;;25.88;38.71;95784.75;5045124;28;20040;-64
2022/12/29 10:32:45;;;;;;;9.65;7.18;;;;;;;25.82;38.46;95767.63;5044901;28;20065;-63
2022/12/29 10:35:20;;;;;;;11.65;8.35;;;;;;;26.06;37.56;95770.44;5014389;28;20149;-63
2022/12/29 10:37:48;;;;;;;17.83;14.20;;;;;;;25.50;32.73;95773.25;5046094;28;20104;-62
2022/12/29 10:40:48;;;;;;;19.13;16.48;;;;;;;24.58;31.96;95774.28;5056656;28;20074;-62
2022/12/29 10:43:26;;;;;;;20.58;16.25;;;;;;;24.64;30.15;95770.28;4997902;28;20135;-63
2022/12/29 10:45:53;;;;;;;20.60;16.77;;;;;;;23.81;30.32;95682.72;5043172;28;20071;-63
2022/12/29 10:48:39;;;;;;;19.63;17.27;;;;;;;24.12;29.93;95760.38;5023621;28;20103;-63
2022/12/29 10:51:05;;;;;;;20.38;16.88;;;;;;;24.20;29.68;95753.19;5042374;28;20064;-62
2022/12/29 10:54:15;;;;;;;22.48;17.83;;;;;;;24.00;29.75;95750.69;5043638;28;20525;-63
2022/12/29 10:56:54;;;;;;;22.08;17.73;;;;;;;23.73;29.65;95758.09;5024191;28;20056;-63
2022/12/29 10:59:30;;;;;;;22.63;17.80;;;;;;;22.83;30.53;95720.59;5027933;28;20036;-62
2022/12/29 11:01:55;;;;;;;22.10;17.95;;;;;;;22.94;30.86;95738.50;5063445;28;20607;-63
2022/12/29 11:04:44;;;;;;;20.75;17.30;;;;;;;23.06;30.44;95739.28;5030266;28;20147;-63
2022/12/29 11:07:10;;;;;;;22.05;16.42;;;;;;;23.35;30.30;95733.44;5008144;28;20048;-63
2022/12/29 11:09:36;;;;;;;23.30;17.88;;;;;;;22.90;30.57;95737.97;5026016;28;20044;-62
2022/12/29 11:12:23;;;;;;;23.08;18.05;;;;;;;22.55;31.16;95727.88;5013473;28;20149;-62
2022/12/29 11:15:09;;;;;;;23.10;18.23;;;;;;;22.38;31.77;95751.53;5062281;28;20032;-62
2022/12/29 11:17:47;;;;;;;22.23;17.70;;;;;;;22.50;31.14;95748.38;5034197;28;20028;-63
2022/12/29 11:20:33;;;;;;;22.08;17.63;;;;;;;22.18;31.19;95732.56;5064224;28;20090;-62
2022/12/29 11:22:59;;;;;;;24.13;18.30;;;;;;;22.37;31.59;95732.97;5064002;28;20063;-62
2022/12/29 11:25:25;;;;;;;21.50;18.40;;;;;;;22.28;31.28;95742.03;5045075;28;20048;-62
2022/12/29 11:28:04;;;;;;;23.30;18.38;;;;;;;22.86;30.81;95730.53;5048102;28;20041;-62
2022/12/29 11:30:31;;;;;;;22.77;17.27;;;;;;;23.05;30.77;95724.94;5052606;28;20041;-62
2022/12/29 11:32:57;;;;;;;23.30;18.50;;;;;;;22.79;30.81;95722.81;5033090;28;20174;-63
2022/12/29 11:35:43;;;;;;;25.00;18.70;;;;;;;22.66;31.24;95708.88;5041671;28;20462;-62
2022/12/29 11:38:41;;;;;;;23.95;18.55;;;;;;;22.21;31.90;95717.25;5028599;28;20049;-63
2022/12/29 11:41:06;;;;;;;22.63;18.17;;;;;;;22.58;31.46;95713.28;5026415;28;20159;-62
2022/12/29 11:43:41;;;;;;;22.67;18.55;;;;;;;22.32;31.84;95717.34;5028549;28;20134;-63
2022/12/29 11:46:07;;;;;;;21.40;16.90;;;;;;;22.81;31.35;95712.16;5048514;28;20052;-62
2022/12/29 11:48:39;;;;;;;22.75;17.25;;;;;;;22.74;31.34;95702.47;5039478;28;20036;-62
2022/12/29 11:51:05;;;;;;;21.30;16.98;;;;;;;22.85;31.13;95685.44;5040377;28;20139;-62
2022/12/29 11:53:56;;;;;;;23.45;16.23;;;;;;;22.81;31.44;95707.47;5026636;28;20500;-62
2022/12/29 11:56:34;;;;;;;19.02;15.68;;;;;;;22.56;31.36;95700.16;5063161;28;20580;-62
2022/12/29 11:59:34;;;;;;;18.50;15.18;;;;;;;22.95;31.41;95701.84;5042841;28;20048;-62
2022/12/29 12:02:00;;;;;;;18.42;14.40;;;;;;;22.62;31.99;95694.75;5042332;28;20053;-62
2022/12/29 12:04:28;;;;;;;19.95;14.05;;;;;;;21.26;32.17;95512.41;5023651;28;20052;-63
2022/12/29 12:07:17;;;;;;;18.67;14.25;;;;;;;22.54;32.13;95715.47;5039957;28;20444;-62
2022/12/29 12:09:43;;;;;;;17.15;13.20;;;;;;;22.64;31.68;95703.91;5033142;28;20044;-64